createdAt,value
2023-01-30T00:00:44.709Z,0.21
2023-01-30T00:03:47.405Z,0.33
2023-01-30T00:06:49.781Z,0.33
2023-01-30T00:09:52.336Z,0.32
2023-01-30T00:12:54.702Z,0.32
2023-01-30T00:15:57.364Z,0.02
2023-01-30T00:18:59.711Z,-0.24
2023-01-30T00:22:02.347Z,-0.41
2023-01-30T00:25:05.309Z,-0.51
2023-01-30T00:28:08.045Z,-0.63
2023-01-30T00:31:10.487Z,-0.69
2023-01-30T00:34:13.236Z,-0.86
2023-01-30T00:37:15.768Z,-1.37
2023-01-30T00:40:18.815Z,-1.09
2023-01-30T00:43:40.273Z,-1.27
2023-01-30T00:47:01.591Z,-1.27
2023-01-30T00:50:04.302Z,-1.17
2023-01-30T00:53:07.104Z,-1.30
2023-01-30T00:56:09.649Z,-0.93
2023-01-30T00:59:12.311Z,-0.94
2023-01-30T01:02:14.660Z,-0.63
2023-01-30T01:05:17.547Z,-0.78
2023-01-30T01:08:20.207Z,-0.72
2023-01-30T01:11:25.909Z,-0.50
2023-01-30T01:14:29.868Z,-0.38
2023-01-30T01:17:32.523Z,-0.53
2023-01-30T01:20:34.949Z,-0.33
2023-01-30T01:23:39.051Z,-0.27
2023-01-30T01:26:42.242Z,-0.34
2023-01-30T01:29:46.643Z,-0.28
2023-01-30T01:32:49.061Z,-0.22
2023-01-30T01:35:55.153Z,-0.16
2023-01-30T01:38:58.329Z,-0.31
2023-01-30T01:42:00.960Z,-0.11
2023-01-30T01:45:10.617Z,-0.24
2023-01-30T01:48:19.205Z,-0.18
2023-01-30T01:51:27.787Z,-0.15
2023-01-30T01:54:39.929Z,0.05
2023-01-30T01:57:54.033Z,0.03
2023-01-30T02:01:00.063Z,-0.07
2023-01-30T02:04:06.251Z,-0.05
2023-01-30T02:07:09.560Z,-0.08
2023-01-30T02:10:18.921Z,0.04
2023-01-30T02:13:23.086Z,-0.12
2023-01-30T02:16:25.472Z,-0.28
2023-01-30T02:19:49.088Z,-0.64
2023-01-30T02:23:14.955Z,-0.76
2023-01-30T02:27:08.077Z,-0.62
2023-01-30T02:30:36.132Z,-0.75
2023-01-30T02:33:50.707Z,-0.76
2023-01-30T02:37:32.631Z,-1.12
2023-01-30T02:40:48.412Z,-0.98
2023-01-30T02:44:32.397Z,-1.10
2023-01-30T02:47:45.221Z,-1.22
2023-01-30T02:50:57.135Z,-1.38
2023-01-30T02:54:00.437Z,-1.16
2023-01-30T02:57:02.925Z,-1.10
2023-01-30T03:00:07.725Z,-1.14
2023-01-30T03:03:11.115Z,-1.04
2023-01-30T03:06:40.002Z,-0.75
2023-01-30T03:10:07.572Z,-0.67
2023-01-30T03:13:16.617Z,-0.67
2023-01-30T03:16:26.072Z,-0.62
2023-01-30T03:19:31.570Z,-0.66
2023-01-30T03:22:35.094Z,-0.61
2023-01-30T03:25:40.619Z,-0.87
2023-01-30T03:28:43.947Z,-0.83
2023-01-30T03:31:46.637Z,-0.69
2023-01-30T03:34:49.073Z,-0.73
2023-01-30T03:37:52.194Z,-1.01
2023-01-30T03:40:54.641Z,-1.34
2023-01-30T03:43:57.364Z,-1.08
2023-01-30T03:47:00.232Z,-1.25
2023-01-30T03:50:03.773Z,-1.09
2023-01-30T03:53:06.639Z,-1.01
2023-01-30T03:56:09.905Z,-1.35
2023-01-30T03:59:12.615Z,-1.07
2023-01-30T04:02:19.648Z,-1.21
2023-01-30T04:05:23.674Z,-0.97
2023-01-30T04:08:27.481Z,-1.13
2023-01-30T04:11:30.734Z,-1.11
2023-01-30T04:14:33.292Z,-1.09
2023-01-30T04:17:39.304Z,-1.36
2023-01-30T04:20:43.851Z,-1.40
2023-01-30T04:23:47.732Z,-1.29
2023-01-30T04:26:50.076Z,-1.45
2023-01-30T04:29:52.725Z,-1.64
2023-01-30T04:32:55.138Z,-1.76
2023-01-30T04:35:59.816Z,-1.91
2023-01-30T04:39:02.782Z,-1.84
2023-01-30T04:42:05.995Z,-2.06
2023-01-30T04:45:10.897Z,-1.90
2023-01-30T04:48:14.299Z,-2.14
2023-01-30T04:51:17.741Z,-1.97
2023-01-30T04:54:20.486Z,-1.81
2023-01-30T04:57:22.820Z,-1.76
2023-01-30T05:00:26.071Z,-1.86
2023-01-30T05:03:29.753Z,-1.86
2023-01-30T05:06:33.417Z,-1.90
2023-01-30T05:09:35.704Z,-1.96
2023-01-30T05:12:38.598Z,-1.80
2023-01-30T05:15:41.124Z,-1.74
2023-01-30T05:18:43.917Z,-1.98
2023-01-30T05:21:46.253Z,-1.85
2023-01-30T05:24:48.857Z,-1.75
2023-01-30T05:27:51.140Z,-1.93
2023-01-30T05:30:53.908Z,-1.65
2023-01-30T05:33:56.276Z,-1.49
2023-01-30T05:36:58.885Z,-1.38
2023-01-30T05:40:01.233Z,-1.39
2023-01-30T05:43:03.888Z,-1.24
2023-01-30T05:46:07.446Z,-1.63
2023-01-30T05:49:10.042Z,-1.45
2023-01-30T05:52:12.300Z,-1.33
2023-01-30T05:55:15.213Z,-1.27
2023-01-30T05:58:17.598Z,-1.25
2023-01-30T06:01:21.111Z,-1.42
2023-01-30T06:04:23.892Z,-1.24
2023-01-30T06:07:26.439Z,-1.40
2023-01-30T06:10:29.033Z,-1.37
2023-01-30T06:13:31.986Z,-1.27
2023-01-30T06:16:34.574Z,-1.28
2023-01-30T06:19:36.876Z,-1.25
2023-01-30T06:22:39.470Z,-0.95
2023-01-30T06:25:48.945Z,-0.98
2023-01-30T06:28:51.508Z,-0.99
2023-01-30T06:31:53.846Z,-1.33
2023-01-30T06:34:56.828Z,-1.31
2023-01-30T06:37:59.213Z,-1.45
2023-01-30T06:41:02.040Z,-1.15
2023-01-30T06:44:04.541Z,-1.32
2023-01-30T06:47:07.403Z,-1.15
2023-01-30T06:50:10.130Z,-1.30
2023-01-30T06:53:12.757Z,-1.20
2023-01-30T06:56:15.135Z,-0.93
2023-01-30T06:59:17.725Z,-1.06
2023-01-30T07:02:20.050Z,-1.18
2023-01-30T07:05:22.699Z,-1.17
2023-01-30T07:08:25.059Z,-1.06
2023-01-30T07:11:28.168Z,-0.77
2023-01-30T07:14:30.538Z,-0.75
2023-01-30T07:17:33.528Z,-0.43
2023-01-30T07:20:36.051Z,-0.38
2023-01-30T07:23:38.661Z,-0.33
2023-01-30T07:26:41.011Z,-0.02
2023-01-30T07:29:43.661Z,-0.23
2023-01-30T07:32:54.269Z,-0.06
2023-01-30T07:35:56.960Z,-0.19
2023-01-30T07:39:01.610Z,-0.46
2023-01-30T07:42:04.944Z,-0.54
2023-01-30T07:45:07.800Z,-0.43
2023-01-30T07:48:15.557Z,-0.51
2023-01-30T07:51:17.911Z,-0.18
2023-01-30T07:54:20.671Z,-0.09
2023-01-30T07:57:23.087Z,0.07
2023-01-30T08:00:25.969Z,-0.13
2023-01-30T08:03:28.652Z,0.21
2023-01-30T08:06:31.140Z,0.31
2023-01-30T08:09:33.898Z,0.46
2023-01-30T08:12:36.277Z,0.47
2023-01-30T08:15:38.969Z,0.13
2023-01-30T08:18:41.424Z,0.79
2023-01-30T08:21:43.998Z,0.80
2023-01-30T08:24:46.791Z,0.96
2023-01-30T08:27:49.748Z,1.16
2023-01-30T08:30:53.441Z,1.28
2023-01-30T08:33:56.023Z,1.08
2023-01-30T08:36:58.306Z,1.29
2023-01-30T08:40:03.635Z,1.28
2023-01-30T08:43:06.409Z,1.28
2023-01-30T08:46:09.156Z,1.52
2023-01-30T08:49:11.912Z,1.64
2023-01-30T08:52:14.587Z,1.59
2023-01-30T08:55:18.024Z,1.67
2023-01-30T08:58:22.017Z,1.65
2023-01-30T09:01:24.370Z,1.43
2023-01-30T09:04:30.769Z,1.49
2023-01-30T09:07:33.119Z,1.18
2023-01-30T09:10:36.559Z,1.25
2023-01-30T09:13:43.492Z,1.19
2023-01-30T09:16:48.239Z,1.12
2023-01-30T09:19:50.656Z,1.38
2023-01-30T09:22:53.581Z,1.40
2023-01-30T09:25:56.013Z,1.34
2023-01-30T09:28:58.598Z,1.45
2023-01-30T09:32:01.044Z,1.46
2023-01-30T09:35:04.595Z,1.47
2023-01-30T09:38:06.942Z,1.50
2023-01-30T09:41:28.445Z,1.44
2023-01-30T09:44:58.706Z,1.30
2023-01-30T09:48:04.441Z,1.38
2023-01-30T09:51:51.325Z,1.26
2023-01-30T09:55:02.041Z,1.28
2023-01-30T09:58:04.839Z,1.06
2023-01-30T10:01:15.393Z,1.23
2023-01-30T10:04:36.353Z,1.02
2023-01-30T10:07:52.476Z,1.16
2023-01-30T10:11:33.990Z,1.02
2023-01-30T10:14:46.828Z,1.23
2023-01-30T10:18:08.158Z,1.20
2023-01-30T10:21:21.111Z,1.32
2023-01-30T10:24:40.823Z,1.71
2023-01-30T10:27:52.539Z,1.77
2023-01-30T10:31:10.325Z,1.79
2023-01-30T10:34:37.623Z,1.72
2023-01-30T10:38:01.089Z,1.91
2023-01-30T10:41:36.263Z,2.10
2023-01-30T10:44:44.070Z,2.03
2023-01-30T10:47:47.885Z,1.70
2023-01-30T10:50:56.609Z,1.89
2023-01-30T10:54:13.523Z,1.66
2023-01-30T10:57:23.958Z,1.61
2023-01-30T11:00:37.402Z,1.65
2023-01-30T11:03:55.780Z,1.51
2023-01-30T11:07:01.997Z,1.48
2023-01-30T11:10:15.819Z,1.69
2023-01-30T11:13:30.696Z,1.74
2023-01-30T11:16:43.412Z,1.81
2023-01-30T11:19:53.420Z,1.76
2023-01-30T11:23:08.725Z,1.66
2023-01-30T11:26:19.300Z,1.76
2023-01-30T11:29:33.709Z,1.85
2023-01-30T11:32:37.240Z,1.90
2023-01-30T11:35:42.865Z,2.16
2023-01-30T11:39:23.136Z,2.26
2023-01-30T11:42:31.741Z,2.29
2023-01-30T11:45:38.569Z,2.50
2023-01-30T11:49:46.069Z,2.57
2023-01-30T11:52:38.083Z,2.62
2023-01-30T11:55:43.185Z,2.41
2023-01-30T11:59:00.739Z,2.50
2023-01-30T12:02:40.476Z,2.61
2023-01-30T12:05:46.786Z,2.48
2023-01-30T12:08:53.006Z,2.45
2023-01-30T12:11:55.733Z,2.52
2023-01-30T12:15:22.009Z,2.45
2023-01-30T12:18:38.421Z,2.49
2023-01-30T12:21:57.285Z,2.51
2023-01-30T12:25:03.420Z,2.59
2023-01-30T12:28:35.048Z,2.44
2023-01-30T12:31:46.390Z,2.55
2023-01-30T12:34:50.840Z,2.53
2023-01-30T12:38:20.438Z,2.52
2023-01-30T12:41:57.010Z,2.40
2023-01-30T12:45:34.862Z,2.30
2023-01-30T12:49:10.896Z,2.14
2023-01-30T12:52:33.365Z,2.11
2023-01-30T12:55:55.627Z,2.16
2023-01-30T12:59:13.368Z,2.21
2023-01-30T13:02:27.111Z,2.15
2023-01-30T13:05:41.800Z,2.17
2023-01-30T13:08:58.210Z,2.14
2023-01-30T13:12:26.102Z,2.22
2023-01-30T13:15:59.015Z,2.08
2023-01-30T13:19:06.177Z,2.37
2023-01-30T13:22:27.397Z,2.29
2023-01-30T13:25:38.894Z,2.30
2023-01-30T13:28:50.442Z,2.31
2023-01-30T13:31:58.139Z,2.31
2023-01-30T13:35:04.760Z,2.34
2023-01-30T13:38:10.503Z,2.40
2023-01-30T13:41:15.012Z,2.38
2023-01-30T13:44:23.028Z,2.29
2023-01-30T13:47:31.416Z,2.43
2023-01-30T13:50:59.017Z,2.38
2023-01-30T13:54:04.363Z,2.45
2023-01-30T13:57:22.164Z,2.48
2023-01-30T14:00:33.303Z,2.54
2023-01-30T14:03:36.170Z,2.54
2023-01-30T14:06:39.486Z,2.65
2023-01-30T14:10:02.084Z,2.73
2023-01-30T14:13:06.383Z,2.69
2023-01-30T14:16:09.474Z,2.62
2023-01-30T14:19:24.057Z,2.84
2023-01-30T14:22:31.121Z,2.75
2023-01-30T14:25:43.445Z,2.70
2023-01-30T14:28:47.212Z,2.67
2023-01-30T14:31:51.003Z,2.51
2023-01-30T14:35:02.861Z,2.50
2023-01-30T14:38:14.207Z,2.66
2023-01-30T14:41:26.941Z,2.70
2023-01-30T14:44:55.276Z,2.58
2023-01-30T14:48:33.511Z,2.76
2023-01-30T14:51:49.675Z,2.78
2023-01-30T14:54:52.337Z,2.68
2023-01-30T14:58:01.604Z,2.63
2023-01-30T15:01:04.953Z,2.45
2023-01-30T15:04:12.250Z,2.50
2023-01-30T15:07:20.154Z,2.36
2023-01-30T15:10:56.544Z,2.49
2023-01-30T15:14:11.970Z,2.31
2023-01-30T15:17:37.651Z,2.33
2023-01-30T15:20:52.406Z,2.43
2023-01-30T15:24:18.950Z,2.48
2023-01-30T15:27:31.856Z,2.50
2023-01-30T15:30:47.386Z,2.48
2023-01-30T15:33:52.216Z,2.49
2023-01-30T15:36:54.674Z,2.47
2023-01-30T15:40:20.435Z,2.48
2023-01-30T15:43:29.001Z,2.38
2023-01-30T15:46:43.459Z,2.56
2023-01-30T15:49:57.164Z,2.55
2023-01-30T15:53:00.122Z,2.49
2023-01-30T15:56:07.094Z,2.43
2023-01-30T15:59:34.827Z,2.41
2023-01-30T16:02:37.697Z,2.27
2023-01-30T16:05:48.026Z,2.02
2023-01-30T16:09:20.428Z,2.17
2023-01-30T16:12:28.259Z,2.19
2023-01-30T16:15:30.771Z,2.10
2023-01-30T16:18:49.700Z,2.00
2023-01-30T16:21:55.251Z,1.95
2023-01-30T16:24:57.957Z,1.90
2023-01-30T16:28:00.630Z,1.73
2023-01-30T16:31:06.919Z,1.77
2023-01-30T16:34:30.999Z,1.88
2023-01-30T16:37:33.654Z,1.98
2023-01-30T16:40:46.401Z,1.91
2023-01-30T16:44:08.273Z,2.11
2023-01-30T16:47:22.401Z,2.07
2023-01-30T16:50:25.417Z,2.05
2023-01-30T16:53:30.707Z,1.93
2023-01-30T16:56:34.707Z,1.87
2023-01-30T16:59:37.917Z,1.83
2023-01-30T17:02:42.552Z,1.81
2023-01-30T17:05:47.909Z,1.74
2023-01-30T17:08:54.281Z,1.85
2023-01-30T17:11:56.766Z,1.80
2023-01-30T17:15:14.204Z,1.87
2023-01-30T17:18:17.265Z,1.71
2023-01-30T17:21:22.998Z,1.91
2023-01-30T17:24:26.212Z,1.92
2023-01-30T17:27:30.509Z,1.90
2023-01-30T17:30:32.738Z,2.05
2023-01-30T17:33:35.302Z,2.27
2023-01-30T17:36:39.124Z,2.21
2023-01-30T17:39:41.845Z,2.44
2023-01-30T17:42:44.899Z,2.33
2023-01-30T17:45:48.251Z,2.47
2023-01-30T17:48:51.836Z,2.61
2023-01-30T17:51:55.612Z,2.60
2023-01-30T17:54:57.927Z,2.80
2023-01-30T17:58:01.475Z,2.71
2023-01-30T18:01:06.528Z,2.91
2023-01-30T18:04:09.564Z,2.93
2023-01-30T18:07:14.641Z,2.99
2023-01-30T18:10:19.991Z,3.10
2023-01-30T18:13:22.618Z,3.01
2023-01-30T18:16:28.827Z,3.20
2023-01-30T18:19:31.846Z,3.11
2023-01-30T18:22:34.701Z,3.17
2023-01-30T18:25:37.324Z,3.36
2023-01-30T18:28:40.280Z,3.26
2023-01-30T18:31:43.082Z,3.26
2023-01-30T18:34:46.135Z,3.51
2023-01-30T18:37:49.887Z,3.43
2023-01-30T18:40:52.615Z,3.56
2023-01-30T18:43:56.968Z,3.58
2023-01-30T18:46:59.971Z,3.56
2023-01-30T18:50:02.401Z,3.61
2023-01-30T18:53:05.119Z,3.36
2023-01-30T18:56:09.277Z,3.61
2023-01-30T18:59:11.923Z,3.46
2023-01-30T19:02:14.377Z,3.63
2023-01-30T19:05:17.121Z,3.48
2023-01-30T19:08:19.672Z,3.65
2023-01-30T19:11:41.432Z,3.63
2023-01-30T19:14:44.821Z,3.55
2023-01-30T19:17:47.485Z,3.58
2023-01-30T19:20:50.113Z,3.71
2023-01-30T19:23:53.452Z,3.72
2023-01-30T19:26:56.097Z,3.67
2023-01-30T19:29:58.963Z,3.73
2023-01-30T19:33:01.413Z,3.72
2023-01-30T19:36:11.545Z,3.72
2023-01-30T19:39:14.125Z,3.62
2023-01-30T19:42:16.786Z,3.69
2023-01-30T19:45:19.905Z,3.79
2023-01-30T19:48:22.543Z,3.81
2023-01-30T19:51:30.517Z,3.89
2023-01-30T19:54:34.400Z,3.80
2023-01-30T19:57:36.810Z,3.98
2023-01-30T20:00:39.438Z,4.01
2023-01-30T20:03:42.786Z,3.88
2023-01-30T20:06:45.976Z,4.03
2023-01-30T20:09:48.722Z,3.90
2023-01-30T20:12:51.108Z,4.05
2023-01-30T20:15:54.765Z,3.93
2023-01-30T20:18:59.054Z,3.90
2023-01-30T20:22:07.275Z,4.04
2023-01-30T20:25:10.357Z,4.11
2023-01-30T20:28:12.977Z,4.05
2023-01-30T20:31:20.948Z,4.01
2023-01-30T20:34:23.881Z,4.03
2023-01-30T20:37:26.557Z,4.21
2023-01-30T20:40:29.177Z,4.20
2023-01-30T20:43:34.404Z,4.20
2023-01-30T20:46:41.559Z,4.09
2023-01-30T20:49:44.638Z,4.20
2023-01-30T20:52:51.467Z,4.08
2023-01-30T20:55:57.248Z,4.20
2023-01-30T20:59:01.222Z,4.23
2023-01-30T21:02:03.524Z,4.15
2023-01-30T21:05:07.069Z,4.17
2023-01-30T21:08:09.460Z,4.20
2023-01-30T21:11:17.265Z,4.20
2023-01-30T21:14:19.599Z,4.04
2023-01-30T21:17:22.168Z,4.04
2023-01-30T21:20:24.523Z,4.11
2023-01-30T21:23:28.970Z,4.12
2023-01-30T21:26:33.385Z,4.29
2023-01-30T21:29:36.882Z,4.29
2023-01-30T21:32:39.256Z,4.33
2023-01-30T21:35:42.189Z,4.34
2023-01-30T21:39:03.087Z,4.14
2023-01-30T21:42:27.096Z,4.16
2023-01-30T21:45:29.424Z,4.24
2023-01-30T21:48:32.025Z,4.10
2023-01-30T21:51:34.811Z,4.22
2023-01-30T21:54:37.800Z,4.12
2023-01-30T21:57:40.120Z,4.16
2023-01-30T22:00:42.951Z,4.14
2023-01-30T22:03:46.176Z,3.99
2023-01-30T22:06:48.563Z,4.11
2023-01-30T22:09:51.112Z,4.10
2023-01-30T22:12:53.685Z,3.96
2023-01-30T22:16:00.141Z,4.08
2023-01-30T22:19:04.772Z,3.90
2023-01-30T22:22:07.426Z,4.11
2023-01-30T22:25:09.987Z,4.13
2023-01-30T22:28:12.613Z,3.99
2023-01-30T22:31:18.154Z,4.12
2023-01-30T22:34:21.562Z,4.17
2023-01-30T22:37:23.878Z,4.04
2023-01-30T22:40:26.489Z,4.04
2023-01-30T22:43:30.629Z,4.08
2023-01-30T22:46:36.453Z,4.04
2023-01-30T22:49:39.645Z,4.19
2023-01-30T22:52:42.240Z,4.03
2023-01-30T22:55:44.552Z,4.05
2023-01-30T22:58:48.486Z,4.24
2023-01-30T23:01:51.100Z,4.24
2023-01-30T23:04:54.363Z,4.23
2023-01-30T23:07:57.377Z,4.08
2023-01-30T23:11:15.585Z,4.23
2023-01-30T23:14:18.205Z,4.06
2023-01-30T23:17:39.588Z,4.04
2023-01-30T23:20:41.899Z,4.12
2023-01-30T23:23:45.441Z,4.29
2023-01-30T23:26:50.987Z,4.12
2023-01-30T23:29:53.628Z,4.16
2023-01-30T23:32:55.937Z,4.33
2023-01-30T23:36:03.157Z,4.17
2023-01-30T23:39:05.512Z,4.34
2023-01-30T23:42:08.163Z,4.23
2023-01-30T23:45:10.959Z,4.36
2023-01-30T23:48:13.637Z,4.18
2023-01-30T23:51:17.807Z,4.31
2023-01-30T23:54:20.484Z,4.14
2023-01-30T23:57:22.787Z,4.25
